< Typhoon 198022 1980 Season Typhoon 198024 >
Typhoon 198023 (DINAH)
General InformationTrack Information on Google MapsDetailed Wind Information || NewsDisaster Info.ResourceGoogle EarthGE AnimationAtom FeedGeoJSON
Detalied Best Track (Time Zone = UTC)
Year Month Day Hour Lat. Long. Pressure (hPa) Wind (kt) Class Image Chart
1980 11 20 18 9.0 162.0 1006 0 2 -- Chart
1980 11 21 00 9.5 160.0 1002 0 2 -- Chart
1980 11 21 06 10.0 157.8 994 35 3 -- Chart
1980 11 21 12 10.4 155.7 985 40 3 -- Chart
1980 11 21 18 10.8 153.6 975 50 4 -- Chart
1980 11 22 00 11.5 151.5 970 70 5 -- Chart
1980 11 22 06 13.0 149.4 970 70 5 -- Chart
1980 11 22 12 14.0 147.4 970 70 5 -- Chart
1980 11 22 18 15.0 146.0 950 70 5 -- Chart
1980 11 23 00 16.1 144.8 950 80 5 -- Chart
1980 11 23 06 17.3 144.1 950 90 5 -- Chart
1980 11 23 12 18.6 143.9 955 90 5 -- Chart
1980 11 23 18 20.1 144.0 955 75 5 -- Chart
1980 11 24 00 21.3 144.6 955 85 5 -- Chart
1980 11 24 06 22.7 146.1 955 80 5 -- Chart
1980 11 24 12 24.4 148.6 960 75 5 -- Chart
1980 11 24 18 25.9 151.4 965 70 5 -- Chart
1980 11 25 00 27.3 155.0 970 65 5 -- Chart
1980 11 25 06 28.9 158.8 975 60 4 -- Chart
1980 11 25 12 30.1 162.6 980 50 4 -- Chart
1980 11 25 18 31.0 167.0 990 0 6 -- Chart
1980 11 26 00 31.4 169.7 996 0 6 -- Chart
1980 11 26 06 31.6 172.0 1000 0 6 -- Chart
1980 11 26 12 31.8 174.0 1002 0 6 -- Chart
1980 11 26 18 31.9 176.0 1004 0 6 -- Chart
1980 11 27 00 32.0 178.0 1004 0 6 -- Chart
1980 11 27 06 32.0 180.0 1004 0 6 -- Chart
Japan Meteorological Agency Best Track Data | Correction Date : 1992-10-21
< Typhoon 198022 1980 Season Typhoon 198024 >

Help